sensor_id;sensor_type;location;lat;lon;timestamp;temperature;humidity
44731;DHT22;30458;47.448;19.032;2022-12-18T00:05:51;1.80;99.90
44731;DHT22;30458;47.448;19.032;2022-12-18T00:15:52;1.70;99.90
44731;DHT22;30458;47.448;19.032;2022-12-18T00:25:53;1.80;99.90
44731;DHT22;30458;47.448;19.032;2022-12-18T00:35:54;1.80;99.90
44731;DHT22;30458;47.448;19.032;2022-12-18T00:45:54;1.70;99.90
44731;DHT22;30458;47.448;19.032;2022-12-18T00:55:55;1.70;99.90
44731;DHT22;30458;47.448;19.032;2022-12-18T01:05:56;1.70;99.90
44731;DHT22;30458;47.448;19.032;2022-12-18T01:16:00;1.60;99.90
44731;DHT22;30458;47.448;19.032;2022-12-18T01:26:06;1.70;99.90
44731;DHT22;30458;47.448;19.032;2022-12-18T01:36:24;1.70;99.90
44731;DHT22;30458;47.448;19.032;2022-12-18T01:46:32;1.70;99.90
44731;DHT22;30458;47.448;19.032;2022-12-18T01:56:33;1.60;99.90
44731;DHT22;30458;47.448;19.032;2022-12-18T02:06:40;1.20;99.90
44731;DHT22;30458;47.448;19.032;2022-12-18T02:17:09;1.30;99.90
44731;DHT22;30458;47.448;19.032;2022-12-18T02:27:14;1.30;99.90
44731;DHT22;30458;47.448;19.032;2022-12-18T02:37:19;1.00;99.90
44731;DHT22;30458;47.448;19.032;2022-12-18T02:47:27;0.90;99.90
44731;DHT22;30458;47.448;19.032;2022-12-18T03:07:41;0.90;99.90
44731;DHT22;30458;47.448;19.032;2022-12-18T03:17:55;0.90;99.90
44731;DHT22;30458;47.448;19.032;2022-12-18T03:28:00;0.90;99.90
44731;DHT22;30458;47.448;19.032;2022-12-18T03:38:05;0.70;99.90
44731;DHT22;30458;47.448;19.032;2022-12-18T03:58:20;0.70;99.90
44731;DHT22;30458;47.448;19.032;2022-12-18T04:08:43;0.50;99.90
44731;DHT22;30458;47.448;19.032;2022-12-18T04:18:48;0.70;99.90
44731;DHT22;30458;47.448;19.032;2022-12-18T04:28:53;0.30;99.90
44731;DHT22;30458;47.448;19.032;2022-12-18T04:38:57;0.00;99.90
44731;DHT22;30458;47.448;19.032;2022-12-18T04:49:00;-0.10;99.90
44731;DHT22;30458;47.448;19.032;2022-12-18T04:59:01;0.00;99.90
44731;DHT22;30458;47.448;19.032;2022-12-18T05:09:06;-0.20;99.90
44731;DHT22;30458;47.448;19.032;2022-12-18T05:19:07;-0.40;99.90
44731;DHT22;30458;47.448;19.032;2022-12-18T05:29:10;-0.70;99.90
44731;DHT22;30458;47.448;19.032;2022-12-18T05:39:15;-0.60;99.90
44731;DHT22;30458;47.448;19.032;2022-12-18T05:49:16;-0.60;99.90
44731;DHT22;30458;47.448;19.032;2022-12-18T05:59:16;-0.60;99.90
44731;DHT22;30458;47.448;19.032;2022-12-18T06:09:17;-0.70;99.90
44731;DHT22;30458;47.448;19.032;2022-12-18T06:19:18;-0.80;99.90
44731;DHT22;30458;47.448;19.032;2022-12-18T06:29:21;-0.70;99.90
44731;DHT22;30458;47.448;19.032;2022-12-18T06:39:24;-0.70;99.90
44731;DHT22;30458;47.448;19.032;2022-12-18T06:49:25;-0.50;99.90
44731;DHT22;30458;47.448;19.032;2022-12-18T06:59:26;-0.20;99.90
44731;DHT22;30458;47.448;19.032;2022-12-18T07:09:26;-0.10;99.90
44731;DHT22;30458;47.448;19.032;2022-12-18T07:19:32;-0.50;99.90
44731;DHT22;30458;47.448;19.032;2022-12-18T07:29:32;-0.30;99.90
44731;DHT22;30458;47.448;19.032;2022-12-18T07:39:33;0.80;99.90
44731;DHT22;30458;47.448;19.032;2022-12-18T07:49:34;4.30;99.90
44731;DHT22;30458;47.448;19.032;2022-12-18T07:59:35;6.70;95.90
44731;DHT22;30458;47.448;19.032;2022-12-18T08:09:38;8.50;92.30
44731;DHT22;30458;47.448;19.032;2022-12-18T08:19:39;10.50;87.50
44731;DHT22;30458;47.448;19.032;2022-12-18T08:29:42;12.00;80.10
44731;DHT22;30458;47.448;19.032;2022-12-18T08:39:42;13.10;74.80
44731;DHT22;30458;47.448;19.032;2022-12-18T08:49:46;13.70;72.30
44731;DHT22;30458;47.448;19.032;2022-12-18T08:59:49;13.90;69.40
44731;DHT22;30458;47.448;19.032;2022-12-18T09:09:52;15.00;68.10
44731;DHT22;30458;47.448;19.032;2022-12-18T09:19:52;14.80;67.50
44731;DHT22;30458;47.448;19.032;2022-12-18T09:29:53;14.10;67.70
44731;DHT22;30458;47.448;19.032;2022-12-18T09:39:56;12.80;69.00
44731;DHT22;30458;47.448;19.032;2022-12-18T09:50:03;11.20;72.20
44731;DHT22;30458;47.448;19.032;2022-12-18T10:10:51;7.30;81.60
44731;DHT22;30458;47.448;19.032;2022-12-18T10:21:03;6.20;85.40
44731;DHT22;30458;47.448;19.032;2022-12-18T10:31:12;5.60;88.20
44731;DHT22;30458;47.448;19.032;2022-12-18T11:01:25;4.40;91.40
44731;DHT22;30458;47.448;19.032;2022-12-18T11:11:26;4.40;92.10
44731;DHT22;30458;47.448;19.032;2022-12-18T11:21:29;4.30;92.80
44731;DHT22;30458;47.448;19.032;2022-12-18T11:31:39;4.60;92.80
44731;DHT22;30458;47.448;19.032;2022-12-18T11:41:57;4.80;92.30
44731;DHT22;30458;47.448;19.032;2022-12-18T11:52:28;4.40;93.70
44731;DHT22;30458;47.448;19.032;2022-12-18T12:43:50;4.60;94.20
44731;DHT22;30458;47.448;19.032;2022-12-18T12:53:51;4.50;94.40
44731;DHT22;30458;47.448;19.032;2022-12-18T13:04:21;4.50;94.80
44731;DHT22;30458;47.448;19.032;2022-12-18T13:14:27;4.50;94.70
44731;DHT22;30458;47.448;19.032;2022-12-18T13:24:33;4.60;94.60
44731;DHT22;30458;47.448;19.032;2022-12-18T13:34:37;4.10;95.00
44731;DHT22;30458;47.448;19.032;2022-12-18T13:44:39;4.00;95.30
44731;DHT22;30458;47.448;19.032;2022-12-18T13:54:41;3.90;95.50
44731;DHT22;30458;47.448;19.032;2022-12-18T14:04:48;4.20;95.30
44731;DHT22;30458;47.448;19.032;2022-12-18T14:14:52;4.20;94.90
44731;DHT22;30458;47.448;19.032;2022-12-18T14:35:20;3.80;96.40
44731;DHT22;30458;47.448;19.032;2022-12-18T14:45:38;3.70;96.80
44731;DHT22;30458;47.448;19.032;2022-12-18T14:55:44;3.90;96.90
44731;DHT22;30458;47.448;19.032;2022-12-18T15:05:46;4.10;96.70
44731;DHT22;30458;47.448;19.032;2022-12-18T15:15:55;3.70;96.00
44731;DHT22;30458;47.448;19.032;2022-12-18T15:25:59;3.60;96.80
44731;DHT22;30458;47.448;19.032;2022-12-18T15:36:04;3.70;97.80
44731;DHT22;30458;47.448;19.032;2022-12-18T15:46:13;3.60;98.00
44731;DHT22;30458;47.448;19.032;2022-12-18T15:56:18;3.60;98.30
44731;DHT22;30458;47.448;19.032;2022-12-18T16:06:40;3.30;98.50
44731;DHT22;30458;47.448;19.032;2022-12-18T16:16:41;3.30;99.10
44731;DHT22;30458;47.448;19.032;2022-12-18T16:26:42;3.20;99.30
44731;DHT22;30458;47.448;19.032;2022-12-18T16:36:51;3.00;99.40
44731;DHT22;30458;47.448;19.032;2022-12-18T16:46:54;2.90;99.80
44731;DHT22;30458;47.448;19.032;2022-12-18T16:56:56;2.80;99.90
44731;DHT22;30458;47.448;19.032;2022-12-18T17:06:57;2.70;99.90
44731;DHT22;30458;47.448;19.032;2022-12-18T17:17:03;2.50;99.90
44731;DHT22;30458;47.448;19.032;2022-12-18T17:27:04;2.40;99.90
44731;DHT22;30458;47.448;19.032;2022-12-18T17:37:10;2.30;99.90
44731;DHT22;30458;47.448;19.032;2022-12-18T17:47:14;2.20;99.90
44731;DHT22;30458;47.448;19.032;2022-12-18T17:57:18;2.10;99.90
44731;DHT22;30458;47.448;19.032;2022-12-18T18:07:18;1.90;99.90
44731;DHT22;30458;47.448;19.032;2022-12-18T18:17:19;1.90;99.90
44731;DHT22;30458;47.448;19.032;2022-12-18T18:27:22;1.80;99.90
44731;DHT22;30458;47.448;19.032;2022-12-18T18:37:23;1.70;99.90
44731;DHT22;30458;47.448;19.032;2022-12-18T18:47:24;1.50;99.90
44731;DHT22;30458;47.448;19.032;2022-12-18T18:57:29;1.50;99.90
44731;DHT22;30458;47.448;19.032;2022-12-18T19:07:32;1.50;99.90
44731;DHT22;30458;47.448;19.032;2022-12-18T19:17:35;1.30;99.90
44731;DHT22;30458;47.448;19.032;2022-12-18T19:27:36;1.20;99.90
44731;DHT22;30458;47.448;19.032;2022-12-18T19:37:39;1.10;99.90
44731;DHT22;30458;47.448;19.032;2022-12-18T19:47:42;1.10;99.90
44731;DHT22;30458;47.448;19.032;2022-12-18T19:57:43;1.10;99.90
44731;DHT22;30458;47.448;19.032;2022-12-18T20:07:44;1.00;99.90
44731;DHT22;30458;47.448;19.032;2022-12-18T20:17:45;1.00;99.90
44731;DHT22;30458;47.448;19.032;2022-12-18T20:27:45;0.90;99.90
44731;DHT22;30458;47.448;19.032;2022-12-18T20:37:51;0.80;99.90
44731;DHT22;30458;47.448;19.032;2022-12-18T20:47:55;0.70;99.90
44731;DHT22;30458;47.448;19.032;2022-12-18T20:57:58;0.60;99.90
44731;DHT22;30458;47.448;19.032;2022-12-18T21:07:59;0.60;99.90
44731;DHT22;30458;47.448;19.032;2022-12-18T21:18:02;0.70;99.90
44731;DHT22;30458;47.448;19.032;2022-12-18T21:28:03;0.50;99.90
44731;DHT22;30458;47.448;19.032;2022-12-18T21:38:04;0.50;99.90
44731;DHT22;30458;47.448;19.032;2022-12-18T21:48:09;0.60;99.90
44731;DHT22;30458;47.448;19.032;2022-12-18T21:58:13;0.60;99.90
44731;DHT22;30458;47.448;19.032;2022-12-18T22:08:14;0.60;99.90
44731;DHT22;30458;47.448;19.032;2022-12-18T22:18:15;0.60;99.90
44731;DHT22;30458;47.448;19.032;2022-12-18T22:28:15;0.50;99.90
44731;DHT22;30458;47.448;19.032;2022-12-18T22:38:37;0.50;99.90
44731;DHT22;30458;47.448;19.032;2022-12-18T22:48:38;0.50;99.90
44731;DHT22;30458;47.448;19.032;2022-12-18T22:58:39;0.40;99.90
44731;DHT22;30458;47.448;19.032;2022-12-18T23:08:42;0.40;99.90
44731;DHT22;30458;47.448;19.032;2022-12-18T23:18:44;0.50;99.90
44731;DHT22;30458;47.448;19.032;2022-12-18T23:28:50;0.50;99.90
44731;DHT22;30458;47.448;19.032;2022-12-18T23:38:56;0.50;99.90
44731;DHT22;30458;47.448;19.032;2022-12-18T23:49:01;0.50;99.90
44731;DHT22;30458;47.448;19.032;2022-12-18T23:59:02;0.50;99.90
